Time;durP1;ratioP1;P1;durP2;ratioP2;P2;SDS_P1;SDS_P2;PMS_P1;PMS_P2;Temp;Humidity;BMP_temperature;BMP_pressure;BME280_temperature;BME280_humidity;BME280_pressure;Samples;Min_cycle;Max_cycle;Signal;HPM_P1;HPM_P2
2022/05/29 00:01:14;;;;;;;;;5.00;3.75;;;;;15.17;44.99;101641.75;5062059;28;45275;-52
2022/05/29 00:03:40;;;;;;;;;4.00;3.75;;;;;15.10;44.92;101642.25;5062028;28;45244;-53
2022/05/29 00:06:05;;;;;;;;;3.75;3.00;;;;;15.05;44.98;101635.44;5061933;28;45318;-52
2022/05/29 00:08:35;;;;;;;;;1.50;1.50;;;;;15.04;45.00;101631.06;5061804;28;45377;-55
2022/05/29 00:11:01;;;;;;;;;2.75;2.00;;;;;14.98;45.08;101634.09;5063693;28;45370;-55
2022/05/29 00:13:28;;;;;;;;;3.00;1.00;;;;;14.90;45.14;101619.63;5062803;28;45443;-54
2022/05/29 00:15:53;;;;;;;;;1.00;1.00;;;;;14.87;45.18;101626.00;5061749;28;46199;-53
2022/05/29 00:18:19;;;;;;;;;3.75;1.25;;;;;14.84;45.26;101623.50;5061613;28;45258;-52
2022/05/29 00:20:49;;;;;;;;;1.00;1.00;;;;;14.82;45.38;101622.75;5061919;28;45299;-55
2022/05/29 00:23:15;;;;;;;;;2.25;1.00;;;;;14.78;45.25;101618.63;5061686;28;45252;-55
2022/05/29 00:25:44;;;;;;;;;0.00;0.00;;;;;14.76;45.63;101610.72;5061560;28;46023;-50
2022/05/29 00:28:10;;;;;;;;;3.25;1.50;;;;;14.78;45.67;101615.97;5061423;28;45291;-55
2022/05/29 00:30:35;;;;;;;;;2.00;1.00;;;;;14.73;45.70;101612.72;5061634;28;45444;-52
2022/05/29 00:33:01;;;;;;;;;1.00;1.00;;;;;14.73;45.73;101612.72;5061641;28;45653;-53
2022/05/29 00:35:27;;;;;;;;;0.50;0.50;;;;;14.77;45.72;101611.56;5061531;28;46214;-54
2022/05/29 00:37:52;;;;;;;;;0.75;0.75;;;;;14.67;45.68;101611.31;5061540;28;45245;-52
2022/05/29 00:40:33;;;;;;;;;2.00;1.00;;;;;14.64;45.78;101608.00;5061347;28;45283;-54
2022/05/29 00:42:59;;;;;;;;;1.25;1.00;;;;;14.62;45.82;101605.47;5060597;28;45306;-53
2022/05/29 00:45:25;;;;;;;;;1.25;1.00;;;;;14.59;45.79;101613.59;5061241;28;45359;-55
2022/05/29 00:47:52;;;;;;;;;1.00;1.00;;;;;14.56;45.75;101611.13;5061438;28;45307;-54
2022/05/29 00:50:20;;;;;;;;;0.00;0.00;;;;;14.53;45.86;101606.00;5061269;28;45239;-52
2022/05/29 00:52:46;;;;;;;;;1.25;1.00;;;;;14.50;46.13;101604.41;5061393;28;45407;-51
2022/05/29 00:55:27;;;;;;;;;1.00;1.00;;;;;14.49;46.31;101608.00;5060945;28;46091;-51
2022/05/29 00:57:59;;;;;;;;;1.00;1.00;;;;;14.48;46.19;101608.97;5061000;28;45244;-54
2022/05/29 01:00:27;;;;;;;;;2.00;2.00;;;;;14.43;46.15;101604.84;5059875;28;45285;-51
2022/05/29 01:02:56;;;;;;;;;5.50;3.00;;;;;14.39;46.25;101603.34;5061442;28;45327;-53
2022/05/29 01:05:24;;;;;;;;;6.25;5.00;;;;;14.39;46.35;101606.00;5060772;28;45409;-53
2022/05/29 01:07:54;;;;;;;;;8.25;5.25;;;;;14.33;46.20;101598.41;5061051;28;45287;-52
2022/05/29 01:10:29;;;;;;;;;8.00;6.00;;;;;14.24;46.35;101602.47;5060975;28;45330;-54
2022/05/29 01:13:14;;;;;;;;;5.75;4.25;;;;;14.20;46.55;101599.16;5063051;28;45357;-54
2022/05/29 01:15:46;;;;;;;;;5.75;5.75;;;;;14.16;46.52;101597.66;5060994;28;46272;-54
2022/05/29 01:18:30;;;;;;;;;3.00;3.00;;;;;14.09;46.75;101591.00;5060802;28;45234;-53
2022/05/29 01:21:16;;;;;;;;;5.75;1.75;;;;;14.07;46.77;101594.72;5061020;28;45252;-50
2022/05/29 01:23:48;;;;;;;;;4.00;1.75;;;;;14.01;46.97;101600.38;5060927;28;45276;-51
2022/05/29 01:26:57;;;;;;;;;1.00;1.00;;;;;13.98;47.04;101590.78;5060597;28;45662;-53
2022/05/29 01:29:37;;;;;;;;;1.00;1.00;;;;;14.01;47.00;101592.41;5060411;28;45336;-53
2022/05/29 01:32:11;;;;;;;;;3.00;1.75;;;;;14.02;47.27;101594.13;5061076;28;45256;-53
2022/05/29 01:34:47;;;;;;;;;1.00;1.00;;;;;13.97;47.14;101592.59;5060676;28;45580;-50
2022/05/29 01:37:15;;;;;;;;;2.00;1.75;;;;;13.92;47.23;101583.22;5060663;28;46076;-53
2022/05/29 01:39:51;;;;;;;;;0.75;0.00;;;;;13.79;47.29;101580.44;5060745;28;45277;-52
2022/05/29 01:42:19;;;;;;;;;3.50;1.00;;;;;13.72;47.53;101578.25;5060555;28;45562;-53
2022/05/29 01:45:01;;;;;;;;;3.00;1.50;;;;;13.61;47.55;101581.53;5060832;28;45284;-54
2022/05/29 01:47:44;;;;;;;;;2.00;2.00;;;;;13.56;47.82;101580.94;5060372;28;45280;-52
2022/05/29 01:50:24;;;;;;;;;0.50;0.50;;;;;13.50;47.82;101576.00;5060540;28;45309;-51
2022/05/29 01:53:11;;;;;;;;;2.50;1.50;;;;;13.51;48.07;101581.22;5061018;28;45418;-54
2022/05/29 01:55:53;;;;;;;;;3.00;1.00;;;;;13.46;48.28;101569.19;5063893;28;45288;-54
2022/05/29 01:58:29;;;;;;;;;2.75;1.00;;;;;13.47;48.34;101573.53;5063601;28;45326;-53
2022/05/29 02:00:59;;;;;;;;;1.00;1.00;;;;;13.46;48.31;101569.19;5063982;28;45334;-51
2022/05/29 02:03:31;;;;;;;;;179.75;161.25;;;;;13.48;48.36;101576.09;5063855;28;45212;-53
2022/05/29 02:09:23;;;;;;;;;1.50;0.25;;;;;13.56;48.65;101573.84;5063827;28;45323;-51
2022/05/29 02:11:54;;;;;;;;;1.00;1.00;;;;;13.52;48.75;101574.13;5066914;28;45322;-55
2022/05/29 02:14:27;;;;;;;;;0.75;0.75;;;;;13.45;48.71;101573.63;5063673;28;45366;-55
2022/05/29 02:17:01;;;;;;;;;2.00;2.00;;;;;13.45;48.66;101572.78;5064046;28;45311;-55
2022/05/29 02:19:41;;;;;;;;;0.00;0.00;;;;;13.42;49.13;101568.50;5063518;28;45248;-53
2022/05/29 02:22:21;;;;;;;;;3.00;1.00;;;;;13.40;49.10;101558.00;5063572;28;45406;-52
2022/05/29 02:24:51;;;;;;;;;1.00;1.00;;;;;13.39;49.04;101563.41;5063583;28;45232;-53
2022/05/29 02:27:33;;;;;;;;;1.00;1.00;;;;;13.37;49.22;101562.63;5063701;28;45347;-52
2022/05/29 02:30:00;;;;;;;;;2.00;1.25;;;;;13.34;49.26;101562.78;5063508;28;46350;-51
2022/05/29 02:32:38;;;;;;;;;1.00;1.00;;;;;13.34;49.23;101561.00;5063490;28;45428;-50
2022/05/29 02:35:35;;;;;;;;;2.00;1.00;;;;;13.39;49.27;101566.03;5052962;28;45379;-51
2022/05/29 02:38:39;;;;;;;;;3.25;1.25;;;;;13.33;49.68;101558.44;5055758;28;45280;-51
2022/05/29 02:41:12;;;;;;;;;1.00;1.00;;;;;13.23;49.52;101560.78;5059654;28;45344;-50
2022/05/29 02:43:47;;;;;;;;;2.00;2.00;;;;;13.13;49.75;101557.78;5063100;28;45411;-52
2022/05/29 02:46:40;;;;;;;;;1.50;1.00;;;;;13.13;49.93;101562.22;5063358;28;45361;-54
2022/05/29 02:49:21;;;;;;;;;1.00;1.00;;;;;13.10;49.93;101549.16;5063108;28;45357;-54
2022/05/29 02:52:01;;;;;;;;;2.00;2.00;;;;;13.10;50.07;101543.84;5062899;28;45531;-51
2022/05/29 02:54:30;;;;;;;;;1.00;1.00;;;;;13.11;50.14;101545.56;5063197;28;45389;-50
2022/05/29 02:56:57;;;;;;;;;2.00;1.25;;;;;13.14;50.15;101543.59;5062935;28;45392;-49
2022/05/29 02:59:29;;;;;;;;;1.75;1.75;;;;;13.15;50.19;101541.81;5063134;28;45308;-49
2022/05/29 03:02:11;;;;;;;;;2.00;1.75;;;;;13.17;50.39;101541.72;5062803;28;45339;-51
2022/05/29 03:04:49;;;;;;;;;3.00;1.50;;;;;13.18;50.25;101536.34;5062099;28;45317;-53
2022/05/29 03:07:46;;;;;;;;;3.00;2.00;;;;;13.19;50.27;101538.03;5063486;28;45351;-53
2022/05/29 03:10:23;;;;;;;;;1.00;1.00;;;;;13.14;50.34;101532.19;5062721;28;45327;-54
2022/05/29 03:13:08;;;;;;;;;3.00;1.00;;;;;13.12;50.52;101532.28;5066421;28;45359;-55
2022/05/29 03:15:44;;;;;;;;;2.50;1.00;;;;;13.14;50.75;101540.13;5062923;28;45271;-55
2022/05/29 03:18:50;;;;;;;;;2.50;1.00;;;;;13.21;50.61;101543.28;5062964;28;45345;-53
2022/05/29 03:21:24;;;;;;;;;2.00;1.00;;;;;13.22;50.84;101537.91;5050829;28;45352;-54
2022/05/29 03:24:05;;;;;;;;;4.25;2.00;;;;;13.19;50.66;101543.31;5062520;28;45419;-55
2022/05/29 03:26:47;;;;;;;;;2.00;2.00;;;;;13.14;50.81;101537.47;5062500;28;45308;-51
2022/05/29 03:29:20;;;;;;;;;2.00;1.00;;;;;13.11;50.80;101530.56;5062476;28;45338;-50
2022/05/29 03:31:47;;;;;;;;;1.75;1.75;;;;;13.11;50.88;101534.97;5061450;28;45395;-54
2022/05/29 03:34:14;;;;;;;;;3.50;1.75;;;;;13.07;51.10;101536.97;5062279;28;45458;-55
2022/05/29 03:36:47;;;;;;;;;3.25;2.00;;;;;13.06;50.94;101529.97;5062566;28;45193;-54
2022/05/29 03:39:13;;;;;;;;;2.00;2.00;;;;;13.05;50.89;101532.72;5062451;28;45290;-53
2022/05/29 03:41:44;;;;;;;;;2.00;2.00;;;;;13.03;51.07;101529.28;5062454;28;45312;-53
2022/05/29 03:44:11;;;;;;;;;1.00;1.00;;;;;12.98;51.02;101526.91;5061883;28;45406;-52
2022/05/29 03:46:36;;;;;;;;;3.25;1.00;;;;;12.98;51.23;101531.34;5061014;28;45437;-52
2022/05/29 03:49:02;;;;;;;;;2.00;2.00;;;;;12.96;51.27;101530.59;5062163;28;45331;-53
2022/05/29 03:51:27;;;;;;;;;2.00;2.00;;;;;12.90;51.46;101523.84;5062647;28;45335;-53
2022/05/29 03:53:53;;;;;;;;;1.50;1.50;;;;;12.88;51.39;101525.72;5061827;28;46238;-51
2022/05/29 03:56:18;;;;;;;;;2.00;1.00;;;;;12.83;51.30;101522.47;5062209;28;45289;-51
2022/05/29 03:58:43;;;;;;;;;2.75;2.00;;;;;12.75;51.33;101524.69;5061953;28;45336;-52
2022/05/29 04:01:09;;;;;;;;;1.00;1.00;;;;;12.68;51.41;101523.34;5062326;28;45287;-52
2022/05/29 04:03:35;;;;;;;;;2.00;2.00;;;;;12.67;51.54;101529.56;5061764;28;45424;-53
2022/05/29 04:06:01;;;;;;;;;2.50;2.00;;;;;12.69;51.79;101523.25;5061982;28;45261;-54
2022/05/29 04:13:57;;;;;;;;;1.00;1.00;;;;;12.64;51.85;101527.06;5061699;28;45288;-53
2022/05/29 04:16:23;;;;;;;;;1.00;1.00;;;;;12.67;51.97;101534.84;5061619;28;45283;-53
2022/05/29 04:18:48;;;;;;;;;2.50;1.00;;;;;12.70;52.03;101532.03;5062002;28;45267;-55
2022/05/29 04:21:14;;;;;;;;;1.00;1.00;;;;;12.74;52.08;101531.78;5061878;28;45153;-49
2022/05/29 04:23:39;;;;;;;;;4.25;2.00;;;;;12.77;52.17;101536.88;5061909;28;45614;-54
2022/05/29 04:26:05;;;;;;;;;4.50;2.00;;;;;12.76;52.23;101532.53;5061341;28;45311;-52
2022/05/29 04:28:31;;;;;;;;;2.25;1.75;;;;;12.72;52.04;101536.31;5061567;28;45299;-52
2022/05/29 04:30:57;;;;;;;;;2.00;2.00;;;;;12.70;52.13;101530.22;5061677;28;45517;-54
2022/05/29 04:33:24;;;;;;;;;2.00;2.00;;;;;12.65;52.41;101526.16;5061430;28;46211;-51
2022/05/29 04:35:51;;;;;;;;;5.00;2.00;;;;;12.63;52.19;101528.00;5061481;28;45315;-54
2022/05/29 04:38:19;;;;;;;;;3.00;2.00;;;;;12.60;52.49;101522.91;5061760;28;45317;-49
2022/05/29 04:40:45;;;;;;;;;4.50;2.00;;;;;12.57;52.46;101522.16;5061385;28;45348;-53
2022/05/29 04:43:12;;;;;;;;;1.00;1.00;;;;;12.58;52.57;101523.84;5061134;28;45928;-53
2022/05/29 04:45:39;;;;;;;;;2.00;2.00;;;;;12.64;52.57;101527.06;5061282;28;45306;-54
2022/05/29 04:48:06;;;;;;;;;3.00;3.00;;;;;12.68;52.65;101529.47;5061586;28;45433;-53
2022/05/29 04:50:31;;;;;;;;;3.75;2.00;;;;;12.68;52.76;101523.34;5061468;28;45219;-52
2022/05/29 04:52:57;;;;;;;;;3.00;3.00;;;;;12.63;52.84;101531.50;5061331;28;45235;-50
2022/05/29 04:55:23;;;;;;;;;1.25;1.25;;;;;12.60;52.72;101531.69;5060959;28;45228;-54
2022/05/29 04:57:48;;;;;;;;;3.00;1.75;;;;;12.62;52.81;101523.66;5061198;28;45572;-54
2022/05/29 05:00:16;;;;;;;;;3.50;2.00;;;;;12.64;52.87;101524.44;5061167;28;45429;-54
2022/05/29 05:02:41;;;;;;;;;2.00;2.00;;;;;12.56;52.80;101520.44;5061067;28;45521;-55
2022/05/29 05:05:07;;;;;;;;;1.00;1.00;;;;;12.49;52.99;101521.72;5060963;28;45403;-54
2022/05/29 05:07:35;;;;;;;;;2.50;2.50;;;;;12.48;52.99;101519.13;5061379;28;45480;-53
2022/05/29 05:10:00;;;;;;;;;4.00;1.00;;;;;12.51;53.02;101526.91;5060875;28;45524;-54
2022/05/29 05:12:26;;;;;;;;;2.00;2.00;;;;;12.47;53.13;101520.06;5063860;28;46466;-54
2022/05/29 05:14:51;;;;;;;;;1.75;1.75;;;;;12.45;53.41;101520.16;5060896;28;45236;-53
2022/05/29 05:17:17;;;;;;;;;2.00;2.00;;;;;12.50;53.21;101522.56;5061162;28;45438;-50
2022/05/29 05:19:42;;;;;;;;;4.00;1.50;;;;;12.55;53.35;101521.34;5061064;28;45418;-54
2022/05/29 05:22:08;;;;;;;;;3.50;2.00;;;;;12.65;53.30;101521.72;5060803;28;46209;-54
2022/05/29 05:24:37;;;;;;;;;3.00;2.00;;;;;12.73;53.42;101521.31;5060859;28;45274;-53
2022/05/29 05:27:03;;;;;;;;;5.00;2.00;;;;;12.82;53.33;101518.13;5060828;28;45303;-50
2022/05/29 05:29:29;;;;;;;;;4.00;2.50;;;;;12.89;53.45;101516.84;5062288;28;45384;-54
2022/05/29 05:31:54;;;;;;;;;3.50;1.75;;;;;13.00;53.32;101511.78;5064377;28;45814;-50
2022/05/29 05:34:20;;;;;;;;;4.50;1.75;;;;;13.06;53.47;101523.81;5064130;28;45219;-53
2022/05/29 05:36:46;;;;;;;;;3.00;1.25;;;;;13.06;53.47;101516.75;5064498;28;45275;-52
2022/05/29 05:39:11;;;;;;;;;3.00;2.00;;;;;13.15;53.60;101512.72;5064380;28;45414;-49
2022/05/29 05:41:37;;;;;;;;;2.50;2.00;;;;;13.21;53.55;101514.19;5064186;28;45830;-51
2022/05/29 05:44:03;;;;;;;;;7.75;2.25;;;;;13.29;53.50;101518.09;5064076;28;45314;-51
2022/05/29 05:46:29;;;;;;;;;6.00;2.00;;;;;13.40;53.66;101509.53;5064408;28;45220;-53
2022/05/29 05:48:55;;;;;;;;;2.25;2.00;;;;;13.42;53.63;101510.28;5064198;28;45480;-51
2022/05/29 05:51:21;;;;;;;;;2.00;2.00;;;;;13.43;53.58;101511.13;5064118;28;46174;-52
2022/05/29 05:53:46;;;;;;;;;2.25;1.75;;;;;13.47;53.41;101524.09;5063919;28;45294;-53
2022/05/29 05:56:15;;;;;;;;;0.00;0.00;;;;;13.53;53.36;101520.25;5064187;28;45322;-53
2022/05/29 05:58:43;;;;;;;;;4.50;1.00;;;;;13.55;53.35;101521.84;5063878;28;45235;-51
2022/05/29 06:01:16;;;;;;;;;3.00;2.00;;;;;13.59;53.50;101517.25;5063878;28;45360;-54
2022/05/29 06:03:42;;;;;;;;;3.00;1.00;;;;;13.72;53.50;101512.06;5062622;28;45275;-54
2022/05/29 06:06:08;;;;;;;;;1.00;1.00;;;;;13.83;53.47;101515.78;5063963;28;45197;-53
2022/05/29 06:08:34;;;;;;;;;2.00;2.00;;;;;13.88;53.34;101511.03;5063809;28;45231;-51
2022/05/29 06:11:00;;;;;;;;;19.25;15.00;;;;;13.88;53.17;101510.19;5065267;28;45544;-53
2022/05/29 06:13:26;;;;;;;;;3.50;1.00;;;;;13.98;53.18;101513.97;5064786;28;45260;-52
2022/05/29 06:15:51;;;;;;;;;2.00;2.00;;;;;14.08;53.40;101515.13;5063903;28;45333;-55
2022/05/29 06:18:18;;;;;;;;;2.00;2.00;;;;;14.16;53.08;101507.56;5063863;28;45559;-53
2022/05/29 06:20:44;;;;;;;;;1.00;1.00;;;;;14.21;53.25;101510.75;5063522;28;45445;-50
2022/05/29 06:23:11;;;;;;;;;3.00;1.75;;;;;14.26;52.93;101507.81;5063553;28;45268;-55
2022/05/29 06:25:40;;;;;;;;;1.75;1.00;;;;;14.34;52.92;101499.41;5063491;28;45229;-53
2022/05/29 06:28:07;;;;;;;;;1.00;1.00;;;;;14.39;52.89;101508.78;5063368;28;45397;-53
2022/05/29 06:30:33;;;;;;;;;2.00;1.00;;;;;14.44;53.02;101508.47;5063367;28;46186;-51
2022/05/29 06:32:58;;;;;;;;;3.00;2.00;;;;;14.51;52.61;101507.16;5063272;28;45336;-52
2022/05/29 06:35:24;;;;;;;;;1.75;1.00;;;;;14.62;52.54;101498.53;5063602;28;45487;-51
2022/05/29 06:37:49;;;;;;;;;1.00;1.00;;;;;14.67;52.39;101505.22;5063654;28;45423;-50
2022/05/29 06:40:15;;;;;;;;;1.75;1.00;;;;;14.67;52.53;101509.69;5061923;28;46081;-53
2022/05/29 06:42:41;;;;;;;;;2.00;1.00;;;;;14.72;52.40;101502.31;5063005;28;45226;-55
2022/05/29 06:45:08;;;;;;;;;1.00;1.00;;;;;14.78;52.44;101507.22;5063421;28;45335;-54
2022/05/29 06:47:34;;;;;;;;;4.75;2.75;;;;;14.78;52.51;101502.75;5063344;28;45249;-54
2022/05/29 06:50:00;;;;;;;;;4.25;1.00;;;;;14.81;52.22;101512.31;5063145;28;45354;-53
2022/05/29 06:52:29;;;;;;;;;1.00;1.00;;;;;14.87;52.17;101513.72;5063131;28;45348;-55
2022/05/29 06:54:55;;;;;;;;;2.50;1.00;;;;;14.88;52.16;101513.63;5062018;28;45305;-53
2022/05/29 06:57:36;;;;;;;;;2.00;1.00;;;;;14.89;51.70;101517.13;5063052;28;45234;-55
2022/05/29 07:08:01;;;;;;;;;1.75;0.75;;;;;14.86;51.45;101502.25;5063016;28;45228;-49
2022/05/29 07:10:32;;;;;;;;;3.50;1.00;;;;;14.88;51.40;101500.34;5062710;28;45314;-52
2022/05/29 07:12:59;;;;;;;;;1.75;1.75;;;;;14.88;51.13;101505.66;5066108;28;45657;-53
2022/05/29 07:15:25;;;;;;;;;4.00;1.00;;;;;14.88;51.37;101508.31;5062843;28;45268;-54
2022/05/29 07:17:50;;;;;;;;;3.75;1.00;;;;;14.91;51.04;101509.91;5062752;28;45169;-52
2022/05/29 07:20:16;;;;;;;;;5.00;1.00;;;;;14.88;51.07;101499.50;5062722;28;45997;-49
2022/05/29 07:22:43;;;;;;;;;3.00;1.00;;;;;14.91;51.01;101499.28;5062551;28;46102;-50
2022/05/29 07:25:13;;;;;;;;;1.00;0.00;;;;;14.94;50.89;101496.47;5062705;28;45433;-50
2022/05/29 07:27:39;;;;;;;;;1.00;1.00;;;;;15.00;50.63;101498.69;5060988;28;45487;-50
2022/05/29 07:30:06;;;;;;;;;3.50;1.00;;;;;15.11;50.98;101496.19;5062745;28;45265;-51
2022/05/29 07:32:31;;;;;;;;;1.50;1.00;;;;;15.18;50.83;101510.75;5062378;28;45147;-54
2022/05/29 07:34:58;;;;;;;;;1.00;1.00;;;;;15.23;50.94;101499.81;5062682;28;45233;-54
2022/05/29 07:37:24;;;;;;;;;1.00;1.00;;;;;15.18;50.53;101494.84;5062659;28;45259;-54
2022/05/29 07:39:51;;;;;;;;;1.50;1.50;;;;;15.20;50.58;101505.34;5062447;28;45979;-53
2022/05/29 07:45:05;;;;;;;;;1.00;1.00;;;;;15.16;50.20;101493.22;5062378;28;45416;-54
2022/05/29 07:47:37;;;;;;;;;1.00;1.00;;;;;15.22;49.96;101498.13;5062362;28;45242;-54
2022/05/29 07:50:03;;;;;;;;;1.50;0.25;;;;;15.28;50.15;101490.59;5062328;28;45926;-55
2022/05/29 07:52:29;;;;;;;;;1.00;1.00;;;;;15.28;50.01;101487.09;5061831;28;45332;-55
2022/05/29 07:54:55;;;;;;;;;1.00;1.00;;;;;15.26;50.01;101495.19;5062123;28;45267;-53
2022/05/29 07:57:20;;;;;;;;;1.50;0.50;;;;;15.17;49.86;101500.25;5062200;28;45211;-52
2022/05/29 07:59:46;;;;;;;;;1.00;1.00;;;;;15.13;49.70;101498.75;5062065;28;45231;-54
2022/05/29 08:02:11;;;;;;;;;0.50;0.50;;;;;15.12;49.39;101505.84;5062188;28;45185;-55
2022/05/29 08:04:39;;;;;;;;;1.00;1.00;;;;;15.08;49.45;101497.22;5062154;28;45286;-55
2022/05/29 08:07:05;;;;;;;;;0.75;0.75;;;;;15.15;49.42;101500.34;5062315;28;45554;-52
2022/05/29 08:09:30;;;;;;;;;1.00;1.00;;;;;15.27;49.36;101488.91;5061973;28;46022;-52
2022/05/29 08:11:56;;;;;;;;;2.00;1.00;;;;;15.46;49.30;101485.84;5064985;28;45251;-55
2022/05/29 08:14:22;;;;;;;;;1.00;1.00;;;;;15.58;49.21;101487.69;5061959;28;45476;-54
2022/05/29 08:16:47;;;;;;;;;3.00;1.00;;;;;15.63;49.24;101484.72;5062064;28;45684;-52
2022/05/29 08:19:13;;;;;;;;;2.00;1.00;;;;;15.60;49.12;101483.13;5061657;28;45485;-51
2022/05/29 08:21:38;;;;;;;;;4.00;2.00;;;;;15.53;49.26;101487.16;5061820;28;45311;-54
2022/05/29 08:32:16;;;;;;;;;1.00;1.00;;;;;15.38;48.71;101480.22;5061576;28;45331;-53
2022/05/29 08:34:43;;;;;;;;;1.00;1.00;;;;;15.36;48.47;101472.38;5061710;28;45412;-52
2022/05/29 08:37:10;;;;;;;;;1.00;1.00;;;;;15.45;48.49;101472.69;5061675;28;45437;-53
2022/05/29 08:39:35;;;;;;;;;3.50;2.00;;;;;15.51;48.57;101465.16;5059999;28;45934;-53
2022/05/29 08:42:02;;;;;;;;;1.00;1.00;;;;;15.59;48.45;101465.50;5060161;28;45289;-54
2022/05/29 08:44:49;;;;;;;;;0.75;0.75;;;;;15.66;48.28;101465.09;5061100;28;45288;-52
2022/05/29 08:47:23;;;;;;;;;0.50;0.50;;;;;15.71;48.13;101455.00;5061192;28;45247;-52
2022/05/29 08:49:49;;;;;;;;;1.00;1.00;;;;;15.78;48.20;101456.28;5061445;28;45259;-53
2022/05/29 08:52:27;;;;;;;;;1.75;1.00;;;;;15.82;48.07;101466.59;5061254;28;45173;-51
2022/05/29 08:55:08;;;;;;;;;1.75;1.00;;;;;15.74;47.83;101462.75;5061397;28;45375;-51
2022/05/29 08:57:52;;;;;;;;;2.25;0.00;;;;;15.74;47.73;101455.66;5061150;28;45161;-50
2022/05/29 09:00:34;;;;;;;;;0.50;0.50;;;;;15.81;47.66;101459.59;5061120;28;45409;-53
2022/05/29 09:03:00;;;;;;;;;2.00;0.50;;;;;15.83;47.77;101451.50;5060514;28;45426;-53
2022/05/29 09:05:25;;;;;;;;;1.00;1.00;;;;;15.88;47.61;101455.53;5061120;28;45402;-53
2022/05/29 09:07:53;;;;;;;;;1.00;1.00;;;;;15.90;47.52;101448.31;5061351;28;45584;-53
2022/05/29 09:10:30;;;;;;;;;3.00;0.25;;;;;15.94;47.52;101454.25;5060855;28;46501;-54
2022/05/29 09:12:58;;;;;;;;;0.00;0.00;;;;;15.89;47.26;101446.59;5063749;28;45334;-54
2022/05/29 09:15:32;;;;;;;;;4.00;1.00;;;;;15.84;47.17;101447.88;5061119;28;45371;-53
2022/05/29 09:18:07;;;;;;;;;1.00;1.00;;;;;15.79;47.07;101445.53;5060982;28;45359;-52
2022/05/29 09:20:43;;;;;;;;;0.00;0.00;;;;;15.77;46.97;101444.78;5060744;28;45373;-50
2022/05/29 09:23:13;;;;;;;;;0.00;0.00;;;;;15.79;46.93;101444.69;5060573;28;45315;-54
2022/05/29 09:25:42;;;;;;;;;0.00;0.00;;;;;15.87;46.82;101439.69;5060744;28;45215;-54
2022/05/29 09:28:43;;;;;;;;;1.00;0.25;;;;;15.93;46.70;101431.28;5060647;28;45548;-54
2022/05/29 09:31:10;;;;;;;;;1.00;0.00;;;;;16.00;46.79;101434.38;5038500;28;46213;-51
2022/05/29 09:33:38;;;;;;;;;0.00;0.00;;;;;15.97;46.59;101429.28;5056274;28;45265;-53
2022/05/29 09:36:19;;;;;;;;;0.75;0.75;;;;;15.93;46.64;101430.44;5060768;28;45311;-54
2022/05/29 09:39:00;;;;;;;;;1.00;0.00;;;;;16.08;46.59;101427.53;5060842;28;45169;-54
2022/05/29 09:41:48;;;;;;;;;1.00;0.75;;;;;16.18;46.32;101436.53;5060515;28;45257;-54
2022/05/29 09:44:19;;;;;;;;;1.00;1.00;;;;;16.18;46.50;101425.91;5060212;28;45430;-51
2022/05/29 09:46:47;;;;;;;;;1.00;0.00;;;;;16.22;46.51;101423.06;5060620;28;45184;-53
2022/05/29 09:49:41;;;;;;;;;1.00;1.00;;;;;16.23;46.15;101424.75;5060564;28;45468;-53
2022/05/29 09:52:29;;;;;;;;;1.00;0.25;;;;;16.26;46.39;101422.72;5060363;28;45363;-50
2022/05/29 09:55:03;;;;;;;;;0.50;0.25;;;;;16.29;46.21;101426.97;5060200;28;45415;-53
2022/05/29 09:57:43;;;;;;;;;1.00;1.00;;;;;16.23;46.17;101417.63;5060566;28;45290;-53
2022/05/29 10:00:37;;;;;;;;;3.00;1.50;;;;;16.18;45.99;101430.38;5060532;28;45433;-53
2022/05/29 10:03:07;;;;;;;;;2.75;2.00;;;;;16.08;45.99;101411.59;5060343;28;45256;-54
2022/05/29 10:05:44;;;;;;;;;2.00;1.00;;;;;16.09;45.83;101409.78;5059106;28;45508;-54
2022/05/29 10:08:20;;;;;;;;;1.00;1.00;;;;;16.13;45.89;101412.13;5060459;28;45187;-52
2022/05/29 10:10:45;;;;;;;;;2.75;0.00;;;;;16.19;46.02;101403.72;5060387;28;45449;-55
2022/05/29 10:13:35;;;;;;;;;1.25;0.00;;;;;16.32;45.83;101400.16;5063159;28;45355;-54
2022/05/29 10:16:01;;;;;;;;;1.75;1.50;;;;;16.50;45.88;101400.59;5063724;28;45321;-52
2022/05/29 10:18:38;;;;;;;;;1.00;1.00;;;;;16.70;45.83;101400.03;5063737;28;45435;-52
2022/05/29 10:21:19;;;;;;;;;0.25;0.25;;;;;16.81;45.70;101397.41;5063807;28;45153;-53
2022/05/29 10:24:39;;;;;;;;;2.25;1.00;;;;;16.81;45.30;101404.53;5063525;28;46427;-60
2022/05/29 10:27:12;;;;;;;;;0.50;0.50;;;;;16.67;45.29;101398.44;5063299;28;45165;-54
2022/05/29 10:29:40;;;;;;;;;1.00;1.00;;;;;16.64;45.14;101401.28;5063537;28;45231;-51
2022/05/29 10:32:10;;;;;;;;;1.00;1.00;;;;;16.56;44.96;101400.16;5063663;28;45341;-54
2022/05/29 10:34:40;;;;;;;;;1.75;1.75;;;;;16.53;44.99;101395.94;5063198;28;46181;-55
2022/05/29 10:37:25;;;;;;;;;0.75;0.75;;;;;16.54;44.80;101394.13;5063358;28;45339;-54
2022/05/29 10:39:50;;;;;;;;;0.25;0.00;;;;;16.55;44.72;101395.81;5063359;28;45296;-53
2022/05/29 10:42:40;;;;;;;;;0.00;0.00;;;;;16.53;44.74;101390.63;5063274;28;45331;-55
2022/05/29 10:45:06;;;;;;;;;2.25;1.00;;;;;16.58;44.68;101385.78;5063199;28;45379;-56
2022/05/29 10:47:54;;;;;;;;;0.00;0.00;;;;;16.77;44.52;101377.31;5063350;28;45478;-53
2022/05/29 10:50:35;;;;;;;;;0.00;0.00;;;;;17.07;44.52;101368.00;5063332;28;45383;-55
2022/05/29 10:53:27;;;;;;;;;0.00;0.00;;;;;17.39;44.63;101371.69;5062372;28;45255;-55
2022/05/29 10:56:16;;;;;;;;;1.50;1.00;;;;;17.62;44.48;101369.03;5062774;28;45264;-56
2022/05/29 10:59:17;;;;;;;;;2.00;1.00;;;;;17.54;44.34;101367.81;5062692;28;45413;-56
2022/05/29 11:05:07;;;;;;;;;2.25;0.75;;;;;17.37;43.93;101365.59;5062949;28;45382;-56
2022/05/29 11:08:09;;;;;;;;;1.25;1.25;;;;;17.30;43.82;101362.59;5062931;28;45434;-54
2022/05/29 11:11:04;;;;;;;;;1.50;1.00;;;;;17.18;43.84;101357.34;5062900;28;45243;-56
2022/05/29 11:14:04;;;;;;;;;1.00;1.00;;;;;17.12;43.63;101360.47;5062063;28;45318;-51
2022/05/29 11:17:14;;;;;;;;;1.00;1.00;;;;;17.10;43.54;101352.63;5062717;28;45390;-55
2022/05/29 11:19:54;;;;;;;;;2.00;1.00;;;;;17.09;43.62;101360.72;5050125;28;46176;-55
2022/05/29 11:22:50;;;;;;;;;1.00;1.00;;;;;17.10;43.54;101354.44;5062582;28;45272;-55
2022/05/29 11:25:40;;;;;;;;;1.00;1.00;;;;;17.25;43.44;101359.44;5051381;28;45268;-56
2022/05/29 11:28:32;;;;;;;;;2.00;0.75;;;;;17.40;43.34;101344.06;5062357;28;45319;-54
2022/05/29 11:31:10;;;;;;;;;4.00;1.00;;;;;17.54;43.13;101343.00;5062392;28;45746;-54
2022/05/29 11:34:20;;;;;;;;;1.00;0.75;;;;;17.67;43.19;101341.03;5062557;28;45389;-53
2022/05/29 11:36:57;;;;;;;;;3.00;0.00;;;;;17.79;42.72;101336.59;5052614;28;45231;-56
2022/05/29 11:39:36;;;;;;;;;2.25;1.00;;;;;17.76;42.78;101336.81;5062430;28;45658;-57
2022/05/29 11:42:25;;;;;;;;;0.00;0.00;;;;;17.71;42.66;101329.22;5061959;28;45307;-52
2022/05/29 11:45:15;;;;;;;;;1.75;1.00;;;;;17.69;42.52;101331.09;5062188;28;45360;-55
2022/05/29 11:53:52;;;;;;;;;1.75;0.25;;;;;17.59;42.27;101319.47;5061998;28;45775;-54
2022/05/29 11:56:26;;;;;;;;;1.50;1.00;;;;;17.59;42.07;101301.69;5062008;28;45380;-55
2022/05/29 11:59:07;;;;;;;;;3.00;1.00;;;;;17.67;42.19;101302.88;5061724;28;45311;-52
2022/05/29 12:01:45;;;;;;;;;1.00;1.00;;;;;17.94;41.93;101294.53;5062100;28;45240;-55
2022/05/29 12:04:14;;;;;;;;;1.75;1.00;;;;;18.02;41.81;101292.09;5061985;28;45430;-54
2022/05/29 12:06:47;;;;;;;;;0.00;0.00;;;;;18.00;41.83;101289.53;5061841;28;45407;-54
2022/05/29 12:09:16;;;;;;;;;2.00;1.25;;;;;17.94;41.88;101287.38;5062043;28;45467;-55
2022/05/29 12:11:45;;;;;;;;;1.75;1.00;;;;;17.94;41.86;101287.38;5064723;28;45247;-53
2022/05/29 12:14:25;;;;;;;;;3.00;1.75;;;;;17.96;41.52;101288.09;5061724;28;45430;-52
2022/05/29 12:16:57;;;;;;;;;4.00;2.00;;;;;17.94;41.43;101276.72;5062090;28;45249;-52
2022/05/29 12:19:29;;;;;;;;;0.75;0.75;;;;;18.09;41.64;101283.47;5061694;28;45424;-54
2022/05/29 12:22:07;;;;;;;;;0.75;0.75;;;;;18.18;41.79;101281.00;5062111;28;45232;-53
2022/05/29 12:24:38;;;;;;;;;1.25;1.00;;;;;18.02;41.37;101279.59;5061289;28;45382;-53
2022/05/29 12:27:12;;;;;;;;;2.00;1.00;;;;;17.90;41.16;101269.94;5061500;28;45260;-54